Villa Guasayan, Argentina
Current Conditions -  °F | °C
As of 12:00 PM on Wednesday 22 Oct 2014 (Local Time) from SANT Reporting Station
Clear Clear  
Wind Chill: 30°   Ceiling: Unl
Heat Index: 30°   Visibility: 4mi
Dew Point: 17°   Wind: 0mph
Humidity: 45%   Direction: NA
Pressure: 29.94"   Gusts: NA
Location:  27.88°S, 64.85°W
Report Text: SANT 221500Z 00000KT 6000 NSC 30/17 Q1014
Loading
Personal Weather Stations






























Interactive Weather Map
Tropical Storm Tracking
New forecast layout! Learn more

10-Day Weather Forecast

Advertisements
Track Severe Weather on mobile